sensor_id;sensor_type;location;lat;lon;timestamp;P1;durP1;ratioP1;P2;durP2;ratioP2
66384;SDS011;53426;55.872;37.462;2023-07-16T00:01:48;10.90;;;8.60;;
66384;SDS011;53426;55.872;37.462;2023-07-16T00:04:13;8.55;;;7.75;;
66384;SDS011;53426;55.872;37.462;2023-07-16T00:06:39;13.32;;;8.75;;
66384;SDS011;53426;55.872;37.462;2023-07-16T00:09:06;12.57;;;7.70;;
66384;SDS011;53426;55.872;37.462;2023-07-16T00:11:31;7.70;;;7.00;;
66384;SDS011;53426;55.872;37.462;2023-07-16T00:13:57;10.80;;;7.40;;
66384;SDS011;53426;55.872;37.462;2023-07-16T00:16:23;11.48;;;6.70;;
66384;SDS011;53426;55.872;37.462;2023-07-16T00:18:49;10.13;;;8.68;;
66384;SDS011;53426;55.872;37.462;2023-07-16T00:21:14;8.63;;;7.10;;
66384;SDS011;53426;55.872;37.462;2023-07-16T00:23:42;8.73;;;7.82;;
66384;SDS011;53426;55.872;37.462;2023-07-16T00:26:08;12.40;;;6.80;;
66384;SDS011;53426;55.872;37.462;2023-07-16T00:28:34;8.63;;;7.28;;
66384;SDS011;53426;55.872;37.462;2023-07-16T00:31:00;10.15;;;7.32;;
66384;SDS011;53426;55.872;37.462;2023-07-16T00:33:28;8.35;;;7.53;;
66384;SDS011;53426;55.872;37.462;2023-07-16T00:35:54;8.75;;;7.00;;
66384;SDS011;53426;55.872;37.462;2023-07-16T00:38:20;7.85;;;6.88;;
66384;SDS011;53426;55.872;37.462;2023-07-16T00:40:46;10.35;;;6.50;;
66384;SDS011;53426;55.872;37.462;2023-07-16T00:43:14;7.53;;;6.72;;
66384;SDS011;53426;55.872;37.462;2023-07-16T00:45:40;6.88;;;6.22;;
66384;SDS011;53426;55.872;37.462;2023-07-16T00:48:07;10.18;;;6.40;;
66384;SDS011;53426;55.872;37.462;2023-07-16T00:50:37;7.30;;;6.30;;
66384;SDS011;53426;55.872;37.462;2023-07-16T00:53:06;8.55;;;7.32;;
66384;SDS011;53426;55.872;37.462;2023-07-16T00:55:33;9.20;;;5.90;;
66384;SDS011;53426;55.872;37.462;2023-07-16T00:58:05;7.93;;;7.13;;
66384;SDS011;53426;55.872;37.462;2023-07-16T01:00:32;9.13;;;6.50;;
66384;SDS011;53426;55.872;37.462;2023-07-16T01:03:07;9.10;;;5.57;;
66384;SDS011;53426;55.872;37.462;2023-07-16T01:05:45;10.80;;;5.70;;
66384;SDS011;53426;55.872;37.462;2023-07-16T01:08:13;6.00;;;5.50;;
66384;SDS011;53426;55.872;37.462;2023-07-16T01:10:44;6.72;;;5.55;;
66384;SDS011;53426;55.872;37.462;2023-07-16T01:13:12;7.75;;;7.05;;
66384;SDS011;53426;55.872;37.462;2023-07-16T01:15:39;7.18;;;6.57;;
66384;SDS011;53426;55.872;37.462;2023-07-16T01:18:06;8.98;;;6.05;;
66384;SDS011;53426;55.872;37.462;2023-07-16T01:20:32;7.22;;;6.22;;
66384;SDS011;53426;55.872;37.462;2023-07-16T01:23:06;7.55;;;6.85;;
66384;SDS011;53426;55.872;37.462;2023-07-16T01:31:35;15.10;;;7.70;;
66384;SDS011;53426;55.872;37.462;2023-07-16T01:34:06;8.77;;;6.88;;
66384;SDS011;53426;55.872;37.462;2023-07-16T01:36:33;6.93;;;6.15;;
66384;SDS011;53426;55.872;37.462;2023-07-16T01:39:01;10.13;;;6.28;;
66384;SDS011;53426;55.872;37.462;2023-07-16T01:41:28;8.35;;;7.57;;
66384;SDS011;53426;55.872;37.462;2023-07-16T01:43:55;9.82;;;6.00;;
66384;SDS011;53426;55.872;37.462;2023-07-16T01:46:22;7.07;;;6.45;;
66384;SDS011;53426;55.872;37.462;2023-07-16T01:48:49;7.10;;;6.40;;
66384;SDS011;53426;55.872;37.462;2023-07-16T01:51:15;6.38;;;5.78;;
66384;SDS011;53426;55.872;37.462;2023-07-16T01:53:40;6.45;;;5.85;;
66384;SDS011;53426;55.872;37.462;2023-07-16T01:56:06;7.15;;;5.85;;
66384;SDS011;53426;55.872;37.462;2023-07-16T01:58:35;6.82;;;6.10;;
66384;SDS011;53426;55.872;37.462;2023-07-16T02:01:01;7.03;;;6.47;;
66384;SDS011;53426;55.872;37.462;2023-07-16T02:03:27;6.65;;;5.65;;
66384;SDS011;53426;55.872;37.462;2023-07-16T02:05:53;7.90;;;5.88;;
66384;SDS011;53426;55.872;37.462;2023-07-16T02:08:19;9.93;;;5.80;;
66384;SDS011;53426;55.872;37.462;2023-07-16T02:10:48;6.70;;;6.03;;
66384;SDS011;53426;55.872;37.462;2023-07-16T02:13:14;7.97;;;5.60;;
66384;SDS011;53426;55.872;37.462;2023-07-16T02:15:42;6.68;;;5.70;;
66384;SDS011;53426;55.872;37.462;2023-07-16T02:18:08;6.82;;;6.13;;
66384;SDS011;53426;55.872;37.462;2023-07-16T02:20:56;7.03;;;5.65;;
66384;SDS011;53426;55.872;37.462;2023-07-16T02:23:22;7.82;;;5.38;;
66384;SDS011;53426;55.872;37.462;2023-07-16T02:25:48;7.50;;;5.53;;
66384;SDS011;53426;55.872;37.462;2023-07-16T02:28:16;6.03;;;5.63;;
66384;SDS011;53426;55.872;37.462;2023-07-16T02:30:42;6.72;;;5.80;;
66384;SDS011;53426;55.872;37.462;2023-07-16T02:33:11;6.47;;;5.80;;
66384;SDS011;53426;55.872;37.462;2023-07-16T02:35:37;7.70;;;6.88;;
66384;SDS011;53426;55.872;37.462;2023-07-16T02:38:04;7.88;;;6.45;;
66384;SDS011;53426;55.872;37.462;2023-07-16T02:40:31;6.28;;;5.68;;
66384;SDS011;53426;55.872;37.462;2023-07-16T02:42:58;8.48;;;6.50;;
66384;SDS011;53426;55.872;37.462;2023-07-16T02:45:25;7.30;;;6.45;;
66384;SDS011;53426;55.872;37.462;2023-07-16T02:47:51;7.75;;;6.05;;
66384;SDS011;53426;55.872;37.462;2023-07-16T02:50:16;7.65;;;5.97;;
66384;SDS011;53426;55.872;37.462;2023-07-16T02:52:42;20.20;;;8.45;;
66384;SDS011;53426;55.872;37.462;2023-07-16T02:55:08;6.28;;;5.68;;
66384;SDS011;53426;55.872;37.462;2023-07-16T02:57:34;6.68;;;6.07;;
66384;SDS011;53426;55.872;37.462;2023-07-16T03:00:00;7.50;;;5.85;;
66384;SDS011;53426;55.872;37.462;2023-07-16T03:02:31;6.65;;;6.05;;
66384;SDS011;53426;55.872;37.462;2023-07-16T03:04:57;6.03;;;5.50;;
66384;SDS011;53426;55.872;37.462;2023-07-16T03:07:23;6.43;;;5.85;;
66384;SDS011;53426;55.872;37.462;2023-07-16T03:09:49;10.68;;;5.47;;
66384;SDS011;53426;55.872;37.462;2023-07-16T03:12:15;6.75;;;6.03;;
66384;SDS011;53426;55.872;37.462;2023-07-16T03:14:41;7.55;;;5.85;;
66384;SDS011;53426;55.872;37.462;2023-07-16T03:17:07;8.70;;;5.80;;
66384;SDS011;53426;55.872;37.462;2023-07-16T03:19:33;7.97;;;6.10;;
66384;SDS011;53426;55.872;37.462;2023-07-16T03:22:00;6.88;;;6.28;;
66384;SDS011;53426;55.872;37.462;2023-07-16T03:24:28;6.43;;;5.82;;
66384;SDS011;53426;55.872;37.462;2023-07-16T03:26:54;6.70;;;6.10;;
66384;SDS011;53426;55.872;37.462;2023-07-16T03:29:21;9.07;;;5.63;;
66384;SDS011;53426;55.872;37.462;2023-07-16T03:31:47;6.50;;;5.78;;
66384;SDS011;53426;55.872;37.462;2023-07-16T03:34:15;10.45;;;6.10;;
66384;SDS011;53426;55.872;37.462;2023-07-16T03:36:44;10.60;;;5.90;;
66384;SDS011;53426;55.872;37.462;2023-07-16T03:39:10;6.25;;;5.60;;
66384;SDS011;53426;55.872;37.462;2023-07-16T03:41:35;7.13;;;5.57;;
66384;SDS011;53426;55.872;37.462;2023-07-16T03:44:02;6.50;;;5.40;;
66384;SDS011;53426;55.872;37.462;2023-07-16T03:46:34;5.70;;;5.10;;
66384;SDS011;53426;55.872;37.462;2023-07-16T03:49:00;9.75;;;5.57;;
66384;SDS011;53426;55.872;37.462;2023-07-16T03:51:26;7.78;;;6.22;;
66384;SDS011;53426;55.872;37.462;2023-07-16T03:53:53;8.52;;;6.07;;
66384;SDS011;53426;55.872;37.462;2023-07-16T03:56:20;6.70;;;5.65;;
66384;SDS011;53426;55.872;37.462;2023-07-16T03:58:47;6.30;;;5.20;;
66384;SDS011;53426;55.872;37.462;2023-07-16T04:01:13;9.32;;;6.32;;
66384;SDS011;53426;55.872;37.462;2023-07-16T04:03:40;7.40;;;6.70;;
66384;SDS011;53426;55.872;37.462;2023-07-16T04:06:08;8.60;;;5.95;;
66384;SDS011;53426;55.872;37.462;2023-07-16T04:08:35;6.63;;;6.03;;
66384;SDS011;53426;55.872;37.462;2023-07-16T04:11:01;10.68;;;6.22;;
66384;SDS011;53426;55.872;37.462;2023-07-16T04:13:29;9.63;;;6.05;;
66384;SDS011;53426;55.872;37.462;2023-07-16T04:21:16;13.65;;;6.30;;
66384;SDS011;53426;55.872;37.462;2023-07-16T04:23:42;7.13;;;6.43;;
66384;SDS011;53426;55.872;37.462;2023-07-16T04:26:08;8.82;;;6.70;;
66384;SDS011;53426;55.872;37.462;2023-07-16T04:28:33;6.88;;;6.28;;
66384;SDS011;53426;55.872;37.462;2023-07-16T04:30:59;14.75;;;6.43;;
66384;SDS011;53426;55.872;37.462;2023-07-16T04:33:25;8.38;;;6.20;;
66384;SDS011;53426;55.872;37.462;2023-07-16T04:35:51;7.68;;;6.95;;
66384;SDS011;53426;55.872;37.462;2023-07-16T04:38:17;7.38;;;6.30;;
66384;SDS011;53426;55.872;37.462;2023-07-16T04:40:43;10.77;;;6.53;;
66384;SDS011;53426;55.872;37.462;2023-07-16T04:43:09;6.80;;;6.30;;
66384;SDS011;53426;55.872;37.462;2023-07-16T04:45:35;8.52;;;6.43;;
66384;SDS011;53426;55.872;37.462;2023-07-16T04:48:00;9.32;;;6.35;;
66384;SDS011;53426;55.872;37.462;2023-07-16T04:50:26;9.80;;;6.10;;
66384;SDS011;53426;55.872;37.462;2023-07-16T04:52:52;6.82;;;6.22;;
66384;SDS011;53426;55.872;37.462;2023-07-16T04:55:18;16.02;;;6.63;;
66384;SDS011;53426;55.872;37.462;2023-07-16T04:57:44;8.23;;;6.20;;
66384;SDS011;53426;55.872;37.462;2023-07-16T05:00:11;8.30;;;5.82;;
66384;SDS011;53426;55.872;37.462;2023-07-16T05:02:37;7.45;;;6.38;;
66384;SDS011;53426;55.872;37.462;2023-07-16T05:05:04;11.82;;;6.70;;
66384;SDS011;53426;55.872;37.462;2023-07-16T05:07:30;8.98;;;8.07;;
66384;SDS011;53426;55.872;37.462;2023-07-16T05:09:56;7.28;;;6.60;;
66384;SDS011;53426;55.872;37.462;2023-07-16T05:12:22;8.13;;;7.30;;
66384;SDS011;53426;55.872;37.462;2023-07-16T05:14:48;7.90;;;6.95;;
66384;SDS011;53426;55.872;37.462;2023-07-16T05:17:14;7.57;;;6.80;;
66384;SDS011;53426;55.872;37.462;2023-07-16T05:19:41;14.48;;;7.55;;
66384;SDS011;53426;55.872;37.462;2023-07-16T05:22:08;8.73;;;6.75;;
66384;SDS011;53426;55.872;37.462;2023-07-16T05:24:33;7.35;;;6.70;;
66384;SDS011;53426;55.872;37.462;2023-07-16T05:26:59;8.05;;;6.93;;
66384;SDS011;53426;55.872;37.462;2023-07-16T05:29:26;12.80;;;6.85;;
66384;SDS011;53426;55.872;37.462;2023-07-16T05:31:52;7.00;;;6.18;;
66384;SDS011;53426;55.872;37.462;2023-07-16T05:34:18;8.15;;;6.70;;
66384;SDS011;53426;55.872;37.462;2023-07-16T05:36:44;6.90;;;6.32;;
66384;SDS011;53426;55.872;37.462;2023-07-16T05:39:10;8.05;;;6.35;;
66384;SDS011;53426;55.872;37.462;2023-07-16T05:41:39;7.78;;;6.50;;
66384;SDS011;53426;55.872;37.462;2023-07-16T05:44:05;11.05;;;5.97;;
66384;SDS011;53426;55.872;37.462;2023-07-16T05:46:32;6.78;;;6.18;;
66384;SDS011;53426;55.872;37.462;2023-07-16T05:48:58;7.05;;;6.25;;
66384;SDS011;53426;55.872;37.462;2023-07-16T05:51:24;10.48;;;7.28;;
66384;SDS011;53426;55.872;37.462;2023-07-16T05:53:50;9.48;;;7.28;;
66384;SDS011;53426;55.872;37.462;2023-07-16T05:56:16;7.20;;;6.50;;
66384;SDS011;53426;55.872;37.462;2023-07-16T05:58:42;11.95;;;6.75;;
66384;SDS011;53426;55.872;37.462;2023-07-16T06:01:08;8.48;;;6.05;;
66384;SDS011;53426;55.872;37.462;2023-07-16T06:03:34;8.80;;;6.85;;
66384;SDS011;53426;55.872;37.462;2023-07-16T06:06:00;8.40;;;6.20;;
66384;SDS011;53426;55.872;37.462;2023-07-16T06:08:26;12.48;;;7.70;;
66384;SDS011;53426;55.872;37.462;2023-07-16T06:10:52;9.43;;;8.05;;
66384;SDS011;53426;55.872;37.462;2023-07-16T06:13:18;11.23;;;7.03;;
66384;SDS011;53426;55.872;37.462;2023-07-16T06:15:44;10.95;;;7.10;;
66384;SDS011;53426;55.872;37.462;2023-07-16T06:18:11;9.05;;;6.70;;
66384;SDS011;53426;55.872;37.462;2023-07-16T06:20:36;9.32;;;6.72;;
66384;SDS011;53426;55.872;37.462;2023-07-16T06:23:02;8.50;;;6.97;;
66384;SDS011;53426;55.872;37.462;2023-07-16T06:25:29;13.20;;;7.07;;
66384;SDS011;53426;55.872;37.462;2023-07-16T06:27:54;9.45;;;6.47;;
66384;SDS011;53426;55.872;37.462;2023-07-16T06:30:20;9.73;;;7.90;;
66384;SDS011;53426;55.872;37.462;2023-07-16T06:32:46;8.55;;;6.60;;
66384;SDS011;53426;55.872;37.462;2023-07-16T06:35:12;8.95;;;6.78;;
66384;SDS011;53426;55.872;37.462;2023-07-16T06:37:38;11.95;;;6.93;;
66384;SDS011;53426;55.872;37.462;2023-07-16T06:40:04;8.20;;;6.05;;
66384;SDS011;53426;55.872;37.462;2023-07-16T06:42:33;7.88;;;6.38;;
66384;SDS011;53426;55.872;37.462;2023-07-16T06:44:59;7.32;;;6.32;;
66384;SDS011;53426;55.872;37.462;2023-07-16T06:47:25;9.10;;;7.10;;
66384;SDS011;53426;55.872;37.462;2023-07-16T06:49:51;7.65;;;5.65;;
66384;SDS011;53426;55.872;37.462;2023-07-16T06:52:20;9.80;;;5.75;;
66384;SDS011;53426;55.872;37.462;2023-07-16T06:54:53;6.20;;;5.40;;
66384;SDS011;53426;55.872;37.462;2023-07-16T06:57:21;10.38;;;5.85;;
66384;SDS011;53426;55.872;37.462;2023-07-16T06:59:47;7.35;;;6.22;;
66384;SDS011;53426;55.872;37.462;2023-07-16T07:02:13;7.97;;;5.90;;
66384;SDS011;53426;55.872;37.462;2023-07-16T07:04:39;6.07;;;5.47;;
66384;SDS011;53426;55.872;37.462;2023-07-16T07:07:06;6.50;;;5.90;;
66384;SDS011;53426;55.872;37.462;2023-07-16T07:09:32;6.22;;;4.97;;
66384;SDS011;53426;55.872;37.462;2023-07-16T07:11:57;7.82;;;5.97;;
66384;SDS011;53426;55.872;37.462;2023-07-16T07:14:23;6.63;;;6.03;;
66384;SDS011;53426;55.872;37.462;2023-07-16T07:16:49;5.65;;;5.15;;
66384;SDS011;53426;55.872;37.462;2023-07-16T07:19:15;5.72;;;5.07;;
66384;SDS011;53426;55.872;37.462;2023-07-16T07:21:41;10.25;;;8.43;;
66384;SDS011;53426;55.872;37.462;2023-07-16T07:24:07;5.25;;;4.85;;
66384;SDS011;53426;55.872;37.462;2023-07-16T07:26:33;5.72;;;5.05;;
66384;SDS011;53426;55.872;37.462;2023-07-16T07:28:59;5.85;;;5.32;;
66384;SDS011;53426;55.872;37.462;2023-07-16T07:31:25;7.15;;;4.93;;
66384;SDS011;53426;55.872;37.462;2023-07-16T07:33:51;7.30;;;5.20;;
66384;SDS011;53426;55.872;37.462;2023-07-16T07:36:19;16.83;;;7.30;;
66384;SDS011;53426;55.872;37.462;2023-07-16T07:38:45;5.60;;;4.53;;
66384;SDS011;53426;55.872;37.462;2023-07-16T07:41:11;6.93;;;4.45;;
66384;SDS011;53426;55.872;37.462;2023-07-16T07:43:36;5.38;;;4.43;;
66384;SDS011;53426;55.872;37.462;2023-07-16T07:46:02;4.97;;;4.05;;
66384;SDS011;53426;55.872;37.462;2023-07-16T07:48:28;5.97;;;3.90;;
66384;SDS011;53426;55.872;37.462;2023-07-16T07:50:54;4.53;;;4.20;;
66384;SDS011;53426;55.872;37.462;2023-07-16T07:53:20;4.53;;;4.22;;
66384;SDS011;53426;55.872;37.462;2023-07-16T07:55:46;6.78;;;5.00;;
66384;SDS011;53426;55.872;37.462;2023-07-16T07:58:12;6.40;;;3.80;;
66384;SDS011;53426;55.872;37.462;2023-07-16T08:00:38;4.03;;;3.72;;
66384;SDS011;53426;55.872;37.462;2023-07-16T08:03:04;3.88;;;3.58;;
66384;SDS011;53426;55.872;37.462;2023-07-16T08:05:31;4.70;;;4.40;;
66384;SDS011;53426;55.872;37.462;2023-07-16T08:07:58;4.28;;;3.97;;
66384;SDS011;53426;55.872;37.462;2023-07-16T08:10:24;3.83;;;3.53;;
66384;SDS011;53426;55.872;37.462;2023-07-16T08:12:50;4.45;;;4.05;;
66384;SDS011;53426;55.872;37.462;2023-07-16T08:15:17;3.28;;;2.97;;
66384;SDS011;53426;55.872;37.462;2023-07-16T08:17:44;5.57;;;5.07;;
66384;SDS011;53426;55.872;37.462;2023-07-16T08:20:11;4.10;;;3.72;;
66384;SDS011;53426;55.872;37.462;2023-07-16T08:22:38;3.60;;;3.30;;
66384;SDS011;53426;55.872;37.462;2023-07-16T08:25:06;3.42;;;3.13;;
66384;SDS011;53426;55.872;37.462;2023-07-16T08:27:34;6.97;;;4.97;;
66384;SDS011;53426;55.872;37.462;2023-07-16T08:30:00;5.95;;;3.92;;
66384;SDS011;53426;55.872;37.462;2023-07-16T08:32:33;6.30;;;4.22;;
66384;SDS011;53426;55.872;37.462;2023-07-16T08:35:03;11.75;;;5.40;;
66384;SDS011;53426;55.872;37.462;2023-07-16T08:37:30;11.32;;;4.72;;
66384;SDS011;53426;55.872;37.462;2023-07-16T08:39:57;11.27;;;5.47;;
66384;SDS011;53426;55.872;37.462;2023-07-16T08:42:25;6.45;;;4.57;;
66384;SDS011;53426;55.872;37.462;2023-07-16T08:45:12;7.68;;;3.88;;
66384;SDS011;53426;55.872;37.462;2023-07-16T08:47:45;6.47;;;4.55;;
66384;SDS011;53426;55.872;37.462;2023-07-16T08:50:13;14.50;;;6.28;;
66384;SDS011;53426;55.872;37.462;2023-07-16T08:52:40;4.45;;;4.00;;
66384;SDS011;53426;55.872;37.462;2023-07-16T08:55:06;9.63;;;3.88;;
66384;SDS011;53426;55.872;37.462;2023-07-16T08:57:32;4.00;;;3.70;;
66384;SDS011;53426;55.872;37.462;2023-07-16T08:59:59;8.63;;;4.88;;
66384;SDS011;53426;55.872;37.462;2023-07-16T09:02:26;4.00;;;3.60;;
66384;SDS011;53426;55.872;37.462;2023-07-16T09:04:52;4.32;;;3.90;;
66384;SDS011;53426;55.872;37.462;2023-07-16T09:07:18;3.60;;;3.30;;
66384;SDS011;53426;55.872;37.462;2023-07-16T09:09:54;3.88;;;3.58;;
66384;SDS011;53426;55.872;37.462;2023-07-16T09:12:23;6.97;;;3.45;;
66384;SDS011;53426;55.872;37.462;2023-07-16T09:14:50;4.30;;;3.22;;
66384;SDS011;53426;55.872;37.462;2023-07-16T09:17:22;3.50;;;3.28;;
66384;SDS011;53426;55.872;37.462;2023-07-16T09:19:49;6.75;;;4.15;;
66384;SDS011;53426;55.872;37.462;2023-07-16T09:22:17;4.00;;;3.55;;
66384;SDS011;53426;55.872;37.462;2023-07-16T09:24:45;7.47;;;3.42;;
66384;SDS011;53426;55.872;37.462;2023-07-16T09:27:12;6.10;;;5.60;;
66384;SDS011;53426;55.872;37.462;2023-07-16T09:29:39;3.55;;;3.22;;
66384;SDS011;53426;55.872;37.462;2023-07-16T09:32:05;6.00;;;3.30;;
66384;SDS011;53426;55.872;37.462;2023-07-16T09:34:32;4.82;;;4.43;;
66384;SDS011;53426;55.872;37.462;2023-07-16T09:37:00;5.90;;;5.40;;
66384;SDS011;53426;55.872;37.462;2023-07-16T09:39:46;3.58;;;3.13;;
66384;SDS011;53426;55.872;37.462;2023-07-16T09:42:37;3.25;;;2.45;;
66384;SDS011;53426;55.872;37.462;2023-07-16T09:45:08;4.38;;;3.28;;
66384;SDS011;53426;55.872;37.462;2023-07-16T09:47:44;6.25;;;4.28;;
66384;SDS011;53426;55.872;37.462;2023-07-16T09:50:10;4.40;;;3.00;;
66384;SDS011;53426;55.872;37.462;2023-07-16T09:52:41;5.75;;;2.70;;
66384;SDS011;53426;55.872;37.462;2023-07-16T09:55:09;2.50;;;2.30;;
66384;SDS011;53426;55.872;37.462;2023-07-16T09:57:36;3.17;;;2.95;;
66384;SDS011;53426;55.872;37.462;2023-07-16T10:00:09;3.88;;;2.90;;
66384;SDS011;53426;55.872;37.462;2023-07-16T10:02:41;4.22;;;2.40;;
66384;SDS011;53426;55.872;37.462;2023-07-16T10:05:12;2.80;;;2.60;;
66384;SDS011;53426;55.872;37.462;2023-07-16T10:07:39;4.28;;;2.70;;
66384;SDS011;53426;55.872;37.462;2023-07-16T10:10:09;2.60;;;2.40;;
66384;SDS011;53426;55.872;37.462;2023-07-16T10:12:36;2.60;;;2.50;;
66384;SDS011;53426;55.872;37.462;2023-07-16T10:15:04;3.25;;;2.63;;
66384;SDS011;53426;55.872;37.462;2023-07-16T10:17:34;3.78;;;2.00;;
66384;SDS011;53426;55.872;37.462;2023-07-16T10:20:09;2.75;;;2.55;;
66384;SDS011;53426;55.872;37.462;2023-07-16T10:25:09;3.00;;;2.80;;
66384;SDS011;53426;55.872;37.462;2023-07-16T10:27:45;4.32;;;2.30;;
66384;SDS011;53426;55.872;37.462;2023-07-16T10:30:13;2.83;;;2.63;;
66384;SDS011;53426;55.872;37.462;2023-07-16T10:32:39;3.03;;;2.70;;
66384;SDS011;53426;55.872;37.462;2023-07-16T10:35:05;3.90;;;2.60;;
66384;SDS011;53426;55.872;37.462;2023-07-16T10:37:34;4.63;;;4.13;;
66384;SDS011;53426;55.872;37.462;2023-07-16T10:40:00;2.25;;;2.05;;
66384;SDS011;53426;55.872;37.462;2023-07-16T10:42:31;2.63;;;2.42;;
66384;SDS011;53426;55.872;37.462;2023-07-16T10:45:03;3.13;;;2.30;;
66384;SDS011;53426;55.872;37.462;2023-07-16T10:47:34;3.47;;;2.38;;
66384;SDS011;53426;55.872;37.462;2023-07-16T10:50:05;5.18;;;2.40;;
66384;SDS011;53426;55.872;37.462;2023-07-16T10:52:35;2.42;;;2.30;;
66384;SDS011;53426;55.872;37.462;2023-07-16T10:55:04;2.50;;;2.30;;
66384;SDS011;53426;55.872;37.462;2023-07-16T10:57:31;2.70;;;2.50;;
66384;SDS011;53426;55.872;37.462;2023-07-16T10:59:58;3.30;;;3.00;;
66384;SDS011;53426;55.872;37.462;2023-07-16T11:02:26;2.75;;;2.50;;
66384;SDS011;53426;55.872;37.462;2023-07-16T11:04:52;3.00;;;2.80;;
66384;SDS011;53426;55.872;37.462;2023-07-16T11:07:23;7.90;;;4.50;;
66384;SDS011;53426;55.872;37.462;2023-07-16T11:09:51;4.78;;;2.70;;
66384;SDS011;53426;55.872;37.462;2023-07-16T11:12:20;4.60;;;4.28;;
66384;SDS011;53426;55.872;37.462;2023-07-16T11:14:57;3.53;;;2.92;;
66384;SDS011;53426;55.872;37.462;2023-07-16T11:17:23;4.50;;;3.22;;
66384;SDS011;53426;55.872;37.462;2023-07-16T11:19:51;4.30;;;3.63;;
66384;SDS011;53426;55.872;37.462;2023-07-16T11:22:18;3.15;;;2.72;;
66384;SDS011;53426;55.872;37.462;2023-07-16T11:24:46;3.80;;;3.25;;
66384;SDS011;53426;55.872;37.462;2023-07-16T11:29:47;3.72;;;3.40;;
66384;SDS011;53426;55.872;37.462;2023-07-16T11:32:36;4.85;;;4.50;;
66384;SDS011;53426;55.872;37.462;2023-07-16T11:35:08;3.47;;;2.90;;
66384;SDS011;53426;55.872;37.462;2023-07-16T11:37:36;4.72;;;3.55;;
66384;SDS011;53426;55.872;37.462;2023-07-16T11:40:03;5.82;;;3.10;;
66384;SDS011;53426;55.872;37.462;2023-07-16T11:42:38;6.70;;;3.75;;
66384;SDS011;53426;55.872;37.462;2023-07-16T11:45:15;4.25;;;3.38;;
66384;SDS011;53426;55.872;37.462;2023-07-16T11:47:42;5.10;;;4.70;;
66384;SDS011;53426;55.872;37.462;2023-07-16T11:53:25;3.85;;;3.55;;
66384;SDS011;53426;55.872;37.462;2023-07-16T11:55:54;3.00;;;2.80;;
66384;SDS011;53426;55.872;37.462;2023-07-16T11:58:22;3.03;;;2.83;;
66384;SDS011;53426;55.872;37.462;2023-07-16T12:00:49;3.00;;;2.80;;
66384;SDS011;53426;55.872;37.462;2023-07-16T12:03:17;6.10;;;3.00;;
66384;SDS011;53426;55.872;37.462;2023-07-16T12:05:43;4.50;;;4.10;;
66384;SDS011;53426;55.872;37.462;2023-07-16T12:08:13;6.32;;;4.07;;
66384;SDS011;53426;55.872;37.462;2023-07-16T12:10:46;3.40;;;3.10;;
66384;SDS011;53426;55.872;37.462;2023-07-16T12:13:12;3.42;;;3.13;;
66384;SDS011;53426;55.872;37.462;2023-07-16T12:15:40;2.60;;;2.40;;
66384;SDS011;53426;55.872;37.462;2023-07-16T12:18:06;3.25;;;3.05;;
66384;SDS011;53426;55.872;37.462;2023-07-16T12:20:33;3.10;;;2.90;;
66384;SDS011;53426;55.872;37.462;2023-07-16T12:23:00;3.55;;;3.13;;
66384;SDS011;53426;55.872;37.462;2023-07-16T12:25:30;3.72;;;3.17;;
66384;SDS011;53426;55.872;37.462;2023-07-16T12:27:56;3.20;;;3.00;;
66384;SDS011;53426;55.872;37.462;2023-07-16T12:30:29;7.43;;;4.30;;
66384;SDS011;53426;55.872;37.462;2023-07-16T12:32:55;4.30;;;4.00;;
66384;SDS011;53426;55.872;37.462;2023-07-16T12:35:23;5.75;;;3.55;;
66384;SDS011;53426;55.872;37.462;2023-07-16T12:37:49;5.25;;;4.82;;
66384;SDS011;53426;55.872;37.462;2023-07-16T12:40:14;4.28;;;3.90;;
66384;SDS011;53426;55.872;37.462;2023-07-16T12:42:42;4.50;;;4.10;;
66384;SDS011;53426;55.872;37.462;2023-07-16T12:45:11;3.88;;;3.58;;
66384;SDS011;53426;55.872;37.462;2023-07-16T12:47:37;3.90;;;3.60;;
66384;SDS011;53426;55.872;37.462;2023-07-16T12:50:04;4.43;;;4.13;;
66384;SDS011;53426;55.872;37.462;2023-07-16T12:52:31;6.38;;;4.15;;
66384;SDS011;53426;55.872;37.462;2023-07-16T12:55:00;6.20;;;3.15;;
66384;SDS011;53426;55.872;37.462;2023-07-16T12:57:25;5.10;;;4.00;;
66384;SDS011;53426;55.872;37.462;2023-07-16T12:59:51;5.25;;;3.65;;
66384;SDS011;53426;55.872;37.462;2023-07-16T13:02:18;5.22;;;3.88;;
66384;SDS011;53426;55.872;37.462;2023-07-16T13:04:44;4.25;;;3.50;;
66384;SDS011;53426;55.872;37.462;2023-07-16T13:07:10;3.30;;;3.10;;
66384;SDS011;53426;55.872;37.462;2023-07-16T13:09:36;5.68;;;2.97;;
66384;SDS011;53426;55.872;37.462;2023-07-16T13:12:03;3.63;;;3.33;;
66384;SDS011;53426;55.872;37.462;2023-07-16T13:14:30;3.70;;;3.50;;
66384;SDS011;53426;55.872;37.462;2023-07-16T13:16:56;3.17;;;2.97;;
66384;SDS011;53426;55.872;37.462;2023-07-16T13:19:22;4.47;;;3.20;;
66384;SDS011;53426;55.872;37.462;2023-07-16T13:21:48;3.65;;;3.35;;
66384;SDS011;53426;55.872;37.462;2023-07-16T13:24:14;4.70;;;3.33;;
66384;SDS011;53426;55.872;37.462;2023-07-16T13:26:40;3.35;;;3.05;;
66384;SDS011;53426;55.872;37.462;2023-07-16T13:29:07;3.22;;;2.95;;
66384;SDS011;53426;55.872;37.462;2023-07-16T13:31:33;3.15;;;2.95;;
66384;SDS011;53426;55.872;37.462;2023-07-16T13:33:59;3.22;;;2.92;;
66384;SDS011;53426;55.872;37.462;2023-07-16T13:36:26;3.80;;;3.53;;
66384;SDS011;53426;55.872;37.462;2023-07-16T13:38:52;4.43;;;3.13;;
66384;SDS011;53426;55.872;37.462;2023-07-16T13:41:19;4.82;;;4.43;;
66384;SDS011;53426;55.872;37.462;2023-07-16T13:43:47;6.63;;;3.67;;
66384;SDS011;53426;55.872;37.462;2023-07-16T13:46:14;4.03;;;3.67;;
66384;SDS011;53426;55.872;37.462;2023-07-16T13:48:41;6.53;;;4.13;;
66384;SDS011;53426;55.872;37.462;2023-07-16T13:51:07;4.18;;;3.50;;
66384;SDS011;53426;55.872;37.462;2023-07-16T13:53:33;3.42;;;3.10;;
66384;SDS011;53426;55.872;37.462;2023-07-16T13:55:59;3.50;;;3.20;;
66384;SDS011;53426;55.872;37.462;2023-07-16T13:58:31;4.18;;;3.35;;
66384;SDS011;53426;55.872;37.462;2023-07-16T14:00:57;3.60;;;2.90;;
66384;SDS011;53426;55.872;37.462;2023-07-16T14:03:24;4.95;;;3.30;;
66384;SDS011;53426;55.872;37.462;2023-07-16T14:05:49;3.15;;;2.95;;
66384;SDS011;53426;55.872;37.462;2023-07-16T14:08:15;5.43;;;3.95;;
66384;SDS011;53426;55.872;37.462;2023-07-16T14:10:41;3.20;;;3.00;;
66384;SDS011;53426;55.872;37.462;2023-07-16T14:13:07;3.13;;;2.92;;
66384;SDS011;53426;55.872;37.462;2023-07-16T14:15:33;6.40;;;2.97;;
66384;SDS011;53426;55.872;37.462;2023-07-16T14:17:59;3.88;;;2.72;;
66384;SDS011;53426;55.872;37.462;2023-07-16T14:20:25;3.45;;;3.22;;
66384;SDS011;53426;55.872;37.462;2023-07-16T14:22:52;3.63;;;3.33;;
66384;SDS011;53426;55.872;37.462;2023-07-16T14:25:18;3.33;;;3.03;;
66384;SDS011;53426;55.872;37.462;2023-07-16T14:27:43;7.82;;;3.30;;
66384;SDS011;53426;55.872;37.462;2023-07-16T14:30:09;5.03;;;3.28;;
66384;SDS011;53426;55.872;37.462;2023-07-16T14:32:36;3.88;;;3.10;;
66384;SDS011;53426;55.872;37.462;2023-07-16T14:35:02;4.47;;;3.35;;
66384;SDS011;53426;55.872;37.462;2023-07-16T14:37:31;8.63;;;3.40;;
66384;SDS011;53426;55.872;37.462;2023-07-16T14:39:58;4.00;;;3.40;;
66384;SDS011;53426;55.872;37.462;2023-07-16T14:42:30;3.35;;;3.05;;
66384;SDS011;53426;55.872;37.462;2023-07-16T14:44:55;4.25;;;3.88;;
66384;SDS011;53426;55.872;37.462;2023-07-16T14:50:13;3.70;;;3.40;;
66384;SDS011;53426;55.872;37.462;2023-07-16T14:52:39;3.42;;;3.13;;
66384;SDS011;53426;55.872;37.462;2023-07-16T14:55:05;3.70;;;3.00;;
66384;SDS011;53426;55.872;37.462;2023-07-16T14:57:32;3.50;;;3.25;;